Elizabeth Mc Allister — WDB7652 — position and weather

sailwx.info

Track history (hours):
 
Tides and Currents Weather Stations Pressure Air Temp Water Temp Dewpoint Dewpoint Depression Visibility Wind Speed Wind Dir Waves Ship Positions

Elizabeth Mc Allister

Owner: MC ALLISTER TOWING & TRANSPORTATION INC, NEW YORK, NY. More information available from US FCC via Universal Licensing System and Coast Guard Vessel Documentation Center.

Last reported at 2017-Jun-23 20:06 UTC. Time now 2017-Jun-23 22:09 UTC.
Position N 40°27' W 074°03'.

Length 31 m.

Type: Tug. MMSI: 362751376.

Date/timePositionNaut miles runAvg speedWind from/ knotsBaromVisibWave heightAir tempDewpointWater temp
2017-Jun-23 20:06N 40°27' W 074°03'0 0.0
2017-Jun-23 19:58N 40°27' W 074°03'0 0.0
2017-Jun-23 19:29N 40°27' W 074°03'0 0.0
2017-Jun-23 18:57N 40°27' W 074°03'0 0.0
2017-Jun-23 18:30N 40°27' W 074°03'0 0.0
2017-Jun-23 17:38N 40°27' W 074°03'0 0.0
2017-Jun-23 17:30N 40°27' W 074°03'0 0.0
2017-Jun-23 16:54N 40°27' W 074°03'0 0.0
2017-Jun-23 15:08N 40°27' W 074°03'0 0.0
2017-Jun-23 14:57N 40°27' W 074°03'0 0.1
2017-Jun-23 12:22N 40°27' W 074°03'0 0.2
2017-Jun-23 12:00N 40°27' W 074°03'2 2.1
2017-Jun-23 11:07N 40°29' W 074°01'0 3.8
2017-Jun-23 11:00N 40°29' W 074°01'1 2.1
2017-Jun-23 10:29N 40°28' W 074°02'1 2.6
2017-Jun-23 09:59N 40°27' W 074°03'0 0.7
2017-Jun-23 09:24N 40°28' W 074°03'0 0.8
2017-Jun-23 08:58N 40°28' W 074°03'1 1.1
2017-Jun-23 08:29N 40°28' W 074°02'0 0.4
2017-Jun-23 08:00N 40°29' W 074°02'2 3.5
2017-Jun-23 07:30N 40°30' W 074°03'511.0
2017-Jun-23 07:00N 40°36' W 074°03'5 9.0
2017-Jun-23 06:30N 40°39' W 074°07'2 3.8
2017-Jun-23 06:00N 40°40' W 074°08'1 2.8
2017-Jun-23 05:30N 40°42' W 074°08'  
Track history (hours):
 
Tides and Currents Weather Stations Pressure Air Temp Water Temp Dewpoint Dewpoint Depression Visibility Wind Speed Wind Dir Waves Ship Positions

Elizabeth Mc Allister

Owner: MC ALLISTER TOWING & TRANSPORTATION INC, NEW YORK, NY. More information available from US FCC via Universal Licensing System and Coast Guard Vessel Documentation Center.

Last reported at 2017-Jun-23 20:06 UTC. Time now 2017-Jun-23 22:09 UTC.
Position N 40°27' W 074°03'.

Length 31 m.

Type: Tug. MMSI: 362751376.

Date/timePositionNaut miles runAvg speedWind from/ knotsBaromVisibWave heightAir tempDewpointWater temp
2017-Jun-23 20:06N 40°27' W 074°03'0 0.0
2017-Jun-23 19:58N 40°27' W 074°03'0 0.0
2017-Jun-23 19:29N 40°27' W 074°03'0 0.0
2017-Jun-23 18:57N 40°27' W 074°03'0 0.0
2017-Jun-23 18:30N 40°27' W 074°03'0 0.0
2017-Jun-23 17:38N 40°27' W 074°03'0 0.0
2017-Jun-23 17:30N 40°27' W 074°03'0 0.0
2017-Jun-23 16:54N 40°27' W 074°03'0 0.0
2017-Jun-23 15:08N 40°27' W 074°03'0 0.0
2017-Jun-23 14:57N 40°27' W 074°03'0 0.1
2017-Jun-23 12:22N 40°27' W 074°03'0 0.2
2017-Jun-23 12:00N 40°27' W 074°03'2 2.1
2017-Jun-23 11:07N 40°29' W 074°01'0 3.8
2017-Jun-23 11:00N 40°29' W 074°01'1 2.1
2017-Jun-23 10:29N 40°28' W 074°02'1 2.6
2017-Jun-23 09:59N 40°27' W 074°03'0 0.7
2017-Jun-23 09:24N 40°28' W 074°03'0 0.8
2017-Jun-23 08:58N 40°28' W 074°03'1 1.1
2017-Jun-23 08:29N 40°28' W 074°02'0 0.4
2017-Jun-23 08:00N 40°29' W 074°02'2 3.5
2017-Jun-23 07:30N 40°30' W 074°03'511.0
2017-Jun-23 07:00N 40°36' W 074°03'5 9.0
2017-Jun-23 06:30N 40°39' W 074°07'2 3.8
2017-Jun-23 06:00N 40°40' W 074°08'1 2.8
2017-Jun-23 05:30N 40°42' W 074°08'  

Dump ship's entire track history